Airfield :
LOGIN :

Register | Disclaimer

   EN    FR    IT 

 










Legend :    VFR   Marginal VFR   IFR   Intensive IFR   Very Intensive IFR
Visi :
Ceiling :
>= 8 km
>= 3000ft
5 to 8 km
1000 to 3000 ft
1500m to 5 km
500 to 1000 ft
800 to 1500m
200 to 500 ft
< 800m
< 200 ft
Symbols :   Thunderstorms  Fog  Heavy snow  Heavy precipitations  Wind > 20 kt
SIGMETs :     Misc.  Thunderstorms  Icing  Turbulence  Mountain Waves  Volcanic Ashes







- Airport Elevation : 194 ft
- IATA code : LME
- Download approach charts


LFRM - Le Mans

CURRENT METAR :
  • 201800Z AUTO VRB03KT 9999 OVC047 26/16 Q1020 NOSIG

EXPIRED METARs :
  • 201730Z AUTO 36005KT 330V030 9999 BKN044 OVC052 26/16 Q1020 NOSIG
  • 201700Z AUTO 29004KT 250V360 9999 BKN044 OVC058 27/16 Q1020 NOSIG
  • 201630Z AUTO VRB03KT 9999 FEW047 OVC064 27/16 Q1020 NOSIG
  • 201600Z AUTO 31004KT 260V350 9999 BKN049 OVC058 27/16 Q1021 NOSIG
  • 201530Z AUTO 33004KT 260V030 9999 BKN049 OVC058 27/16 Q1021 NOSIG
  • 201500Z AUTO 29003KT 220V350 9999 FEW047 OVC058 27/16 Q1021 NOSIG

TAF TAF LFRM
Valid from the 20 at 18:00 until the 21 at 18:00 UTC


201700Z 2018/2118 VRB03KT 9999 BKN040
No reported NOTAMs for that airfield.



MET'MAP, your aeronautical weather chart ! - Copyright ORBIFLY December 2007 - Disclaimer

ORBIFLY MET'MAP TEAM :

Programming & Development : Alexandra Zaïnal
Concept & Development : Baudouin d'Aumeries
Co-Development & Prog : Marc-Olivier Méhu
Technical & hardware support : Manuel Goepfert

Contact : metmap@orbifly.com




SOURCES & CREDITS :

   NOAA